sensor_id;sensor_type;location;lat;lon;timestamp;temperature;humidity
10583;DHT22;33679;51.218;6.786;2022-09-09T00:02:00;22.70;99.90
10583;DHT22;33679;51.218;6.786;2022-09-09T00:04:29;22.70;99.90
10583;DHT22;33679;51.218;6.786;2022-09-09T00:07:03;22.60;99.90
10583;DHT22;33679;51.218;6.786;2022-09-09T00:09:38;22.60;99.90
10583;DHT22;33679;51.218;6.786;2022-09-09T00:12:11;22.50;99.90
10583;DHT22;33679;51.218;6.786;2022-09-09T00:14:47;22.40;99.90
10583;DHT22;33679;51.218;6.786;2022-09-09T00:17:27;22.40;99.90
10583;DHT22;33679;51.218;6.786;2022-09-09T00:20:05;22.30;99.90
10583;DHT22;33679;51.218;6.786;2022-09-09T00:22:40;22.30;99.90
10583;DHT22;33679;51.218;6.786;2022-09-09T00:25:14;22.20;99.90
10583;DHT22;33679;51.218;6.786;2022-09-09T00:27:48;22.20;99.90
10583;DHT22;33679;51.218;6.786;2022-09-09T00:30:18;22.10;99.90
10583;DHT22;33679;51.218;6.786;2022-09-09T00:32:53;22.10;99.90
10583;DHT22;33679;51.218;6.786;2022-09-09T00:35:26;22.10;99.90
10583;DHT22;33679;51.218;6.786;2022-09-09T00:37:56;22.00;99.90
10583;DHT22;33679;51.218;6.786;2022-09-09T00:40:28;22.00;99.90
10583;DHT22;33679;51.218;6.786;2022-09-09T00:43:25;22.00;99.90
10583;DHT22;33679;51.218;6.786;2022-09-09T00:48:58;22.00;99.90
10583;DHT22;33679;51.218;6.786;2022-09-09T00:51:34;22.00;99.90
10583;DHT22;33679;51.218;6.786;2022-09-09T00:54:33;22.00;99.90
10583;DHT22;33679;51.218;6.786;2022-09-09T00:57:18;22.00;99.90
10583;DHT22;33679;51.218;6.786;2022-09-09T00:59:52;22.00;99.90
10583;DHT22;33679;51.218;6.786;2022-09-09T01:02:27;22.00;99.90
10583;DHT22;33679;51.218;6.786;2022-09-09T01:05:05;22.00;99.90
10583;DHT22;33679;51.218;6.786;2022-09-09T01:07:34;22.00;99.90
10583;DHT22;33679;51.218;6.786;2022-09-09T01:10:08;22.00;99.90
10583;DHT22;33679;51.218;6.786;2022-09-09T01:12:47;22.00;99.90
10583;DHT22;33679;51.218;6.786;2022-09-09T01:15:22;22.00;99.90
10583;DHT22;33679;51.218;6.786;2022-09-09T01:17:59;22.00;99.90
10583;DHT22;33679;51.218;6.786;2022-09-09T01:20:37;22.00;99.90
10583;DHT22;33679;51.218;6.786;2022-09-09T01:23:29;22.10;99.90
10583;DHT22;33679;51.218;6.786;2022-09-09T01:26:27;22.10;99.90
10583;DHT22;33679;51.218;6.786;2022-09-09T01:28:59;22.20;99.90
10583;DHT22;33679;51.218;6.786;2022-09-09T01:31:37;22.30;99.90
10583;DHT22;33679;51.218;6.786;2022-09-09T01:34:11;22.30;99.90
10583;DHT22;33679;51.218;6.786;2022-09-09T01:36:45;22.40;99.90
10583;DHT22;33679;51.218;6.786;2022-09-09T01:39:14;22.40;99.90
10583;DHT22;33679;51.218;6.786;2022-09-09T01:41:43;22.40;99.90
10583;DHT22;33679;51.218;6.786;2022-09-09T01:44:13;22.50;99.90
10583;DHT22;33679;51.218;6.786;2022-09-09T01:46:44;22.50;99.90
10583;DHT22;33679;51.218;6.786;2022-09-09T01:49:17;22.60;99.90
10583;DHT22;33679;51.218;6.786;2022-09-09T01:51:48;22.60;99.90
10583;DHT22;33679;51.218;6.786;2022-09-09T01:54:22;22.50;99.90
10583;DHT22;33679;51.218;6.786;2022-09-09T01:57:01;22.60;99.90
10583;DHT22;33679;51.218;6.786;2022-09-09T01:59:48;22.60;99.90
10583;DHT22;33679;51.218;6.786;2022-09-09T02:02:19;22.50;99.90
10583;DHT22;33679;51.218;6.786;2022-09-09T02:05:06;22.60;99.90
10583;DHT22;33679;51.218;6.786;2022-09-09T02:07:39;22.50;99.90
10583;DHT22;33679;51.218;6.786;2022-09-09T02:10:20;22.50;99.90
10583;DHT22;33679;51.218;6.786;2022-09-09T02:13:03;22.50;99.90
10583;DHT22;33679;51.218;6.786;2022-09-09T02:15:35;22.50;99.90
10583;DHT22;33679;51.218;6.786;2022-09-09T02:18:08;22.50;99.90
10583;DHT22;33679;51.218;6.786;2022-09-09T02:20:39;22.40;99.90
10583;DHT22;33679;51.218;6.786;2022-09-09T02:23:09;22.50;99.90
10583;DHT22;33679;51.218;6.786;2022-09-09T02:25:41;22.40;99.90
10583;DHT22;33679;51.218;6.786;2022-09-09T02:28:21;22.40;99.90
10583;DHT22;33679;51.218;6.786;2022-09-09T02:30:52;22.40;99.90
10583;DHT22;33679;51.218;6.786;2022-09-09T02:33:25;22.40;99.90
10583;DHT22;33679;51.218;6.786;2022-09-09T02:35:55;22.40;99.90
10583;DHT22;33679;51.218;6.786;2022-09-09T02:38:31;22.40;99.90
10583;DHT22;33679;51.218;6.786;2022-09-09T02:41:08;22.30;99.90
10583;DHT22;33679;51.218;6.786;2022-09-09T02:43:45;22.30;99.90
10583;DHT22;33679;51.218;6.786;2022-09-09T02:49:16;22.30;99.90
10583;DHT22;33679;51.218;6.786;2022-09-09T02:51:51;22.30;99.90
10583;DHT22;33679;51.218;6.786;2022-09-09T02:54:27;22.30;99.90
10583;DHT22;33679;51.218;6.786;2022-09-09T02:57:02;22.20;99.90
10583;DHT22;33679;51.218;6.786;2022-09-09T02:59:39;22.20;99.90
10583;DHT22;33679;51.218;6.786;2022-09-09T03:02:08;22.20;99.90
10583;DHT22;33679;51.218;6.786;2022-09-09T03:04:36;22.10;99.90
10583;DHT22;33679;51.218;6.786;2022-09-09T03:07:06;22.10;99.90
10583;DHT22;33679;51.218;6.786;2022-09-09T03:09:38;22.10;99.90
10583;DHT22;33679;51.218;6.786;2022-09-09T03:12:05;22.00;99.90
10583;DHT22;33679;51.218;6.786;2022-09-09T03:14:35;22.10;99.90
10583;DHT22;33679;51.218;6.786;2022-09-09T03:17:07;22.00;99.90
10583;DHT22;33679;51.218;6.786;2022-09-09T03:19:41;22.00;99.90
10583;DHT22;33679;51.218;6.786;2022-09-09T03:22:09;22.00;99.90
10583;DHT22;33679;51.218;6.786;2022-09-09T03:24:39;22.00;99.90
10583;DHT22;33679;51.218;6.786;2022-09-09T03:27:06;22.00;99.90
10583;DHT22;33679;51.218;6.786;2022-09-09T03:29:39;22.00;99.90
10583;DHT22;33679;51.218;6.786;2022-09-09T03:32:11;22.00;99.90
10583;DHT22;33679;51.218;6.786;2022-09-09T03:34:38;22.00;99.90
10583;DHT22;33679;51.218;6.786;2022-09-09T03:37:09;22.00;99.90
10583;DHT22;33679;51.218;6.786;2022-09-09T03:39:36;22.10;99.90
10583;DHT22;33679;51.218;6.786;2022-09-09T03:42:03;22.10;99.90
10583;DHT22;33679;51.218;6.786;2022-09-09T03:44:32;22.10;99.90
10583;DHT22;33679;51.218;6.786;2022-09-09T03:47:01;22.00;99.90
10583;DHT22;33679;51.218;6.786;2022-09-09T03:49:30;22.00;99.90
10583;DHT22;33679;51.218;6.786;2022-09-09T03:52:02;22.10;99.90
10583;DHT22;33679;51.218;6.786;2022-09-09T03:54:29;22.00;99.90
10583;DHT22;33679;51.218;6.786;2022-09-09T03:56:56;22.10;99.90
10583;DHT22;33679;51.218;6.786;2022-09-09T03:59:26;22.00;99.90
10583;DHT22;33679;51.218;6.786;2022-09-09T04:01:53;22.00;99.90
10583;DHT22;33679;51.218;6.786;2022-09-09T04:04:22;22.00;99.90
10583;DHT22;33679;51.218;6.786;2022-09-09T04:06:50;22.00;99.90
10583;DHT22;33679;51.218;6.786;2022-09-09T04:09:20;22.00;99.90
10583;DHT22;33679;51.218;6.786;2022-09-09T04:11:48;22.00;99.90
10583;DHT22;33679;51.218;6.786;2022-09-09T04:14:16;22.00;99.90
10583;DHT22;33679;51.218;6.786;2022-09-09T04:16:44;22.00;99.90
10583;DHT22;33679;51.218;6.786;2022-09-09T04:19:15;21.90;99.90
10583;DHT22;33679;51.218;6.786;2022-09-09T04:21:43;22.00;99.90
10583;DHT22;33679;51.218;6.786;2022-09-09T04:24:12;22.00;99.90
10583;DHT22;33679;51.218;6.786;2022-09-09T04:26:42;22.00;99.90
10583;DHT22;33679;51.218;6.786;2022-09-09T04:29:09;22.00;99.90
10583;DHT22;33679;51.218;6.786;2022-09-09T04:31:37;22.00;99.90
10583;DHT22;33679;51.218;6.786;2022-09-09T04:34:08;22.00;99.90
10583;DHT22;33679;51.218;6.786;2022-09-09T04:36:35;22.00;99.90
10583;DHT22;33679;51.218;6.786;2022-09-09T04:39:07;22.00;99.90
10583;DHT22;33679;51.218;6.786;2022-09-09T04:41:36;22.00;99.90
10583;DHT22;33679;51.218;6.786;2022-09-09T04:44:03;22.00;99.90
10583;DHT22;33679;51.218;6.786;2022-09-09T04:46:32;22.00;99.90
10583;DHT22;33679;51.218;6.786;2022-09-09T04:49:00;22.00;99.90
10583;DHT22;33679;51.218;6.786;2022-09-09T04:51:30;22.00;99.90
10583;DHT22;33679;51.218;6.786;2022-09-09T04:53:57;22.00;99.90
10583;DHT22;33679;51.218;6.786;2022-09-09T04:56:25;22.10;99.90
10583;DHT22;33679;51.218;6.786;2022-09-09T04:58:59;22.10;99.90
10583;DHT22;33679;51.218;6.786;2022-09-09T05:01:43;22.20;99.90
10583;DHT22;33679;51.218;6.786;2022-09-09T05:04:11;22.30;99.90
10583;DHT22;33679;51.218;6.786;2022-09-09T05:06:38;22.40;99.90
10583;DHT22;33679;51.218;6.786;2022-09-09T05:09:06;22.40;99.90
10583;DHT22;33679;51.218;6.786;2022-09-09T05:11:33;22.40;99.90
10583;DHT22;33679;51.218;6.786;2022-09-09T05:14:27;22.50;99.90
10583;DHT22;33679;51.218;6.786;2022-09-09T05:16:59;22.50;99.90
10583;DHT22;33679;51.218;6.786;2022-09-09T05:19:27;22.60;99.90
10583;DHT22;33679;51.218;6.786;2022-09-09T05:21:54;22.60;99.90
10583;DHT22;33679;51.218;6.786;2022-09-09T05:24:32;22.60;99.90
10583;DHT22;33679;51.218;6.786;2022-09-09T05:27:00;22.70;99.90
10583;DHT22;33679;51.218;6.786;2022-09-09T05:29:30;22.60;99.90
10583;DHT22;33679;51.218;6.786;2022-09-09T05:31:59;22.60;99.90
10583;DHT22;33679;51.218;6.786;2022-09-09T05:34:26;22.60;99.90
10583;DHT22;33679;51.218;6.786;2022-09-09T05:36:53;22.70;99.90
10583;DHT22;33679;51.218;6.786;2022-09-09T05:39:22;22.60;99.90
10583;DHT22;33679;51.218;6.786;2022-09-09T05:41:51;22.50;99.90
10583;DHT22;33679;51.218;6.786;2022-09-09T05:44:18;22.50;99.90
10583;DHT22;33679;51.218;6.786;2022-09-09T05:46:47;22.50;99.90
10583;DHT22;33679;51.218;6.786;2022-09-09T05:49:15;22.40;99.90
10583;DHT22;33679;51.218;6.786;2022-09-09T05:51:46;22.40;99.90
10583;DHT22;33679;51.218;6.786;2022-09-09T05:54:19;22.40;99.90
10583;DHT22;33679;51.218;6.786;2022-09-09T05:56:51;22.50;99.90
10583;DHT22;33679;51.218;6.786;2022-09-09T05:59:19;22.50;99.90
10583;DHT22;33679;51.218;6.786;2022-09-09T06:01:47;22.60;99.90
10583;DHT22;33679;51.218;6.786;2022-09-09T06:04:23;22.70;99.90
10583;DHT22;33679;51.218;6.786;2022-09-09T06:06:51;22.70;99.90
10583;DHT22;33679;51.218;6.786;2022-09-09T06:09:20;22.70;99.90
10583;DHT22;33679;51.218;6.786;2022-09-09T06:11:50;22.80;99.90
10583;DHT22;33679;51.218;6.786;2022-09-09T06:14:19;22.80;99.90
10583;DHT22;33679;51.218;6.786;2022-09-09T06:16:53;22.80;99.90
10583;DHT22;33679;51.218;6.786;2022-09-09T06:19:22;22.90;99.90
10583;DHT22;33679;51.218;6.786;2022-09-09T06:21:55;22.90;99.90
10583;DHT22;33679;51.218;6.786;2022-09-09T06:24:24;22.90;99.90
10583;DHT22;33679;51.218;6.786;2022-09-09T06:26:51;23.00;99.90
10583;DHT22;33679;51.218;6.786;2022-09-09T06:29:22;23.00;99.90
10583;DHT22;33679;51.218;6.786;2022-09-09T06:31:52;23.00;99.90
10583;DHT22;33679;51.218;6.786;2022-09-09T06:34:21;23.00;99.90
10583;DHT22;33679;51.218;6.786;2022-09-09T06:36:54;22.90;99.90
10583;DHT22;33679;51.218;6.786;2022-09-09T06:39:24;22.90;99.90
10583;DHT22;33679;51.218;6.786;2022-09-09T06:41:52;22.90;99.90
10583;DHT22;33679;51.218;6.786;2022-09-09T06:44:38;23.00;99.90
10583;DHT22;33679;51.218;6.786;2022-09-09T06:47:10;22.90;99.90
10583;DHT22;33679;51.218;6.786;2022-09-09T06:49:39;22.90;99.90
10583;DHT22;33679;51.218;6.786;2022-09-09T06:52:10;22.90;99.90
10583;DHT22;33679;51.218;6.786;2022-09-09T06:54:38;22.90;99.90
10583;DHT22;33679;51.218;6.786;2022-09-09T06:57:05;22.90;99.90
10583;DHT22;33679;51.218;6.786;2022-09-09T06:59:34;22.90;99.90
10583;DHT22;33679;51.218;6.786;2022-09-09T07:02:02;23.00;99.90
10583;DHT22;33679;51.218;6.786;2022-09-09T07:04:32;23.00;99.90
10583;DHT22;33679;51.218;6.786;2022-09-09T07:06:59;23.00;99.90
10583;DHT22;33679;51.218;6.786;2022-09-09T07:09:27;23.10;99.90
10583;DHT22;33679;51.218;6.786;2022-09-09T07:11:55;23.10;99.90
10583;DHT22;33679;51.218;6.786;2022-09-09T07:14:26;23.20;99.90
10583;DHT22;33679;51.218;6.786;2022-09-09T07:17:00;23.30;99.90
10583;DHT22;33679;51.218;6.786;2022-09-09T07:19:35;23.40;99.90
10583;DHT22;33679;51.218;6.786;2022-09-09T07:22:04;23.40;99.90
10583;DHT22;33679;51.218;6.786;2022-09-09T07:24:35;23.50;99.90
10583;DHT22;33679;51.218;6.786;2022-09-09T07:27:03;23.60;99.90
10583;DHT22;33679;51.218;6.786;2022-09-09T07:29:31;23.70;99.90
10583;DHT22;33679;51.218;6.786;2022-09-09T07:32:02;23.80;99.90
10583;DHT22;33679;51.218;6.786;2022-09-09T07:34:37;23.90;99.90
10583;DHT22;33679;51.218;6.786;2022-09-09T07:37:17;24.00;99.90
10583;DHT22;33679;51.218;6.786;2022-09-09T07:39:54;24.00;99.90
10583;DHT22;33679;51.218;6.786;2022-09-09T07:42:38;24.00;99.90
10583;DHT22;33679;51.218;6.786;2022-09-09T07:45:08;24.10;99.90
10583;DHT22;33679;51.218;6.786;2022-09-09T07:47:40;24.10;99.90
10583;DHT22;33679;51.218;6.786;2022-09-09T07:53:57;24.00;99.90
10583;DHT22;33679;51.218;6.786;2022-09-09T07:57:01;23.80;99.90
10583;DHT22;33679;51.218;6.786;2022-09-09T07:59:47;23.80;99.90
10583;DHT22;33679;51.218;6.786;2022-09-09T08:02:14;23.80;99.90
10583;DHT22;33679;51.218;6.786;2022-09-09T08:04:42;23.60;99.90
10583;DHT22;33679;51.218;6.786;2022-09-09T08:07:10;23.70;99.90
10583;DHT22;33679;51.218;6.786;2022-09-09T08:09:57;23.60;99.90
10583;DHT22;33679;51.218;6.786;2022-09-09T08:12:29;23.60;99.90
10583;DHT22;33679;51.218;6.786;2022-09-09T08:15:11;23.50;99.90
10583;DHT22;33679;51.218;6.786;2022-09-09T08:17:38;23.50;99.90
10583;DHT22;33679;51.218;6.786;2022-09-09T08:20:12;23.50;99.90
10583;DHT22;33679;51.218;6.786;2022-09-09T08:22:54;23.50;99.90
10583;DHT22;33679;51.218;6.786;2022-09-09T08:25:23;23.50;99.90
10583;DHT22;33679;51.218;6.786;2022-09-09T08:27:55;23.60;99.90
10583;DHT22;33679;51.218;6.786;2022-09-09T08:30:35;23.60;99.90
10583;DHT22;33679;51.218;6.786;2022-09-09T08:33:06;23.70;99.90
10583;DHT22;33679;51.218;6.786;2022-09-09T08:35:34;23.80;99.90
10583;DHT22;33679;51.218;6.786;2022-09-09T08:38:02;23.90;99.90
10583;DHT22;33679;51.218;6.786;2022-09-09T08:40:33;24.00;99.90
10583;DHT22;33679;51.218;6.786;2022-09-09T08:43:05;24.20;99.90
10583;DHT22;33679;51.218;6.786;2022-09-09T08:45:35;24.40;99.90
10583;DHT22;33679;51.218;6.786;2022-09-09T08:48:24;24.40;99.90
10583;DHT22;33679;51.218;6.786;2022-09-09T08:51:04;24.40;99.90
10583;DHT22;33679;51.218;6.786;2022-09-09T08:53:41;24.40;99.90
10583;DHT22;33679;51.218;6.786;2022-09-09T08:56:16;24.40;99.90
10583;DHT22;33679;51.218;6.786;2022-09-09T08:58:54;24.50;99.90
10583;DHT22;33679;51.218;6.786;2022-09-09T09:01:58;24.50;99.90
10583;DHT22;33679;51.218;6.786;2022-09-09T09:04:45;24.50;99.90
10583;DHT22;33679;51.218;6.786;2022-09-09T09:07:31;24.40;99.90
10583;DHT22;33679;51.218;6.786;2022-09-09T09:10:15;24.40;99.90
10583;DHT22;33679;51.218;6.786;2022-09-09T09:12:50;24.30;99.90
10583;DHT22;33679;51.218;6.786;2022-09-09T09:15:24;24.30;99.90
10583;DHT22;33679;51.218;6.786;2022-09-09T09:18:08;24.40;99.90
10583;DHT22;33679;51.218;6.786;2022-09-09T09:20:47;24.40;99.90
10583;DHT22;33679;51.218;6.786;2022-09-09T09:23:29;24.40;99.90
10583;DHT22;33679;51.218;6.786;2022-09-09T09:26:01;24.40;99.90
10583;DHT22;33679;51.218;6.786;2022-09-09T09:28:40;24.30;99.90
10583;DHT22;33679;51.218;6.786;2022-09-09T09:31:15;24.30;99.90
10583;DHT22;33679;51.218;6.786;2022-09-09T09:34:00;24.30;99.90
10583;DHT22;33679;51.218;6.786;2022-09-09T09:36:38;24.40;99.90
10583;DHT22;33679;51.218;6.786;2022-09-09T09:39:27;24.30;99.90
10583;DHT22;33679;51.218;6.786;2022-09-09T09:41:58;24.30;99.90
10583;DHT22;33679;51.218;6.786;2022-09-09T09:44:49;24.40;99.90
10583;DHT22;33679;51.218;6.786;2022-09-09T09:47:20;24.50;99.90
10583;DHT22;33679;51.218;6.786;2022-09-09T09:50:17;24.50;99.90
10583;DHT22;33679;51.218;6.786;2022-09-09T09:52:57;24.50;99.90
10583;DHT22;33679;51.218;6.786;2022-09-09T09:55:28;24.50;99.90
10583;DHT22;33679;51.218;6.786;2022-09-09T09:58:02;24.40;99.90
10583;DHT22;33679;51.218;6.786;2022-09-09T10:00:47;24.40;99.90
10583;DHT22;33679;51.218;6.786;2022-09-09T10:03:35;24.50;99.90
10583;DHT22;33679;51.218;6.786;2022-09-09T10:06:07;24.60;99.90
10583;DHT22;33679;51.218;6.786;2022-09-09T10:08:57;24.70;99.90
10583;DHT22;33679;51.218;6.786;2022-09-09T10:11:32;24.90;99.90
10583;DHT22;33679;51.218;6.786;2022-09-09T10:14:20;24.90;99.90
10583;DHT22;33679;51.218;6.786;2022-09-09T10:17:09;24.90;99.90
10583;DHT22;33679;51.218;6.786;2022-09-09T10:19:52;25.00;99.90
10583;DHT22;33679;51.218;6.786;2022-09-09T10:22:33;25.10;99.90
10583;DHT22;33679;51.218;6.786;2022-09-09T10:25:30;25.10;99.90
10583;DHT22;33679;51.218;6.786;2022-09-09T10:28:18;25.20;99.90
10583;DHT22;33679;51.218;6.786;2022-09-09T10:31:00;25.20;99.90
10583;DHT22;33679;51.218;6.786;2022-09-09T10:33:32;25.30;99.90
10583;DHT22;33679;51.218;6.786;2022-09-09T10:36:12;25.30;99.90
10583;DHT22;33679;51.218;6.786;2022-09-09T10:38:41;25.40;99.90
10583;DHT22;33679;51.218;6.786;2022-09-09T10:41:33;25.40;99.90
10583;DHT22;33679;51.218;6.786;2022-09-09T10:44:18;25.40;99.90
10583;DHT22;33679;51.218;6.786;2022-09-09T10:47:03;25.40;99.90
10583;DHT22;33679;51.218;6.786;2022-09-09T10:50:01;25.40;99.90
10583;DHT22;33679;51.218;6.786;2022-09-09T10:52:45;25.50;99.90
10583;DHT22;33679;51.218;6.786;2022-09-09T10:55:19;25.50;99.90
10583;DHT22;33679;51.218;6.786;2022-09-09T10:57:59;25.50;99.90
10583;DHT22;33679;51.218;6.786;2022-09-09T11:00:35;25.40;99.90
10583;DHT22;33679;51.218;6.786;2022-09-09T11:03:05;25.30;99.90
10583;DHT22;33679;51.218;6.786;2022-09-09T11:05:46;25.20;99.90
10583;DHT22;33679;51.218;6.786;2022-09-09T11:08:19;25.20;99.90
10583;DHT22;33679;51.218;6.786;2022-09-09T11:11:12;25.20;99.90
10583;DHT22;33679;51.218;6.786;2022-09-09T11:13:57;25.20;99.90
10583;DHT22;33679;51.218;6.786;2022-09-09T11:16:29;25.20;99.90
10583;DHT22;33679;51.218;6.786;2022-09-09T11:19:14;25.20;99.90
10583;DHT22;33679;51.218;6.786;2022-09-09T11:21:46;25.20;99.90
10583;DHT22;33679;51.218;6.786;2022-09-09T11:24:27;25.10;99.90
10583;DHT22;33679;51.218;6.786;2022-09-09T11:27:05;25.10;99.90
10583;DHT22;33679;51.218;6.786;2022-09-09T11:33:17;24.80;99.90
10583;DHT22;33679;51.218;6.786;2022-09-09T11:35:58;24.70;99.90
10583;DHT22;33679;51.218;6.786;2022-09-09T11:38:41;24.70;99.90
10583;DHT22;33679;51.218;6.786;2022-09-09T11:41:19;24.80;99.90
10583;DHT22;33679;51.218;6.786;2022-09-09T11:44:10;24.80;99.90
10583;DHT22;33679;51.218;6.786;2022-09-09T11:46:39;24.90;99.90
10583;DHT22;33679;51.218;6.786;2022-09-09T11:49:27;25.00;99.90
10583;DHT22;33679;51.218;6.786;2022-09-09T11:51:59;25.00;99.90
10583;DHT22;33679;51.218;6.786;2022-09-09T11:54:47;25.10;99.90
10583;DHT22;33679;51.218;6.786;2022-09-09T11:57:32;25.20;99.90
10583;DHT22;33679;51.218;6.786;2022-09-09T12:00:01;25.30;99.90
10583;DHT22;33679;51.218;6.786;2022-09-09T12:02:48;25.30;99.90
10583;DHT22;33679;51.218;6.786;2022-09-09T12:05:17;25.30;99.90
10583;DHT22;33679;51.218;6.786;2022-09-09T12:07:52;25.20;99.90
10583;DHT22;33679;51.218;6.786;2022-09-09T12:10:36;25.10;99.90
10583;DHT22;33679;51.218;6.786;2022-09-09T12:13:17;25.10;99.90
10583;DHT22;33679;51.218;6.786;2022-09-09T12:15:50;25.00;99.90
10583;DHT22;33679;51.218;6.786;2022-09-09T12:18:23;24.90;99.90
10583;DHT22;33679;51.218;6.786;2022-09-09T12:20:57;24.80;99.90
10583;DHT22;33679;51.218;6.786;2022-09-09T12:23:42;24.90;99.90
10583;DHT22;33679;51.218;6.786;2022-09-09T12:26:30;24.90;99.90
10583;DHT22;33679;51.218;6.786;2022-09-09T12:29:12;25.00;99.90
10583;DHT22;33679;51.218;6.786;2022-09-09T12:32:01;25.00;99.90
10583;DHT22;33679;51.218;6.786;2022-09-09T12:34:48;25.10;99.90
10583;DHT22;33679;51.218;6.786;2022-09-09T12:37:27;25.20;99.90
10583;DHT22;33679;51.218;6.786;2022-09-09T12:40:21;25.10;99.90
10583;DHT22;33679;51.218;6.786;2022-09-09T12:42:58;25.00;99.90
10583;DHT22;33679;51.218;6.786;2022-09-09T12:45:31;25.00;99.90
10583;DHT22;33679;51.218;6.786;2022-09-09T12:48:04;25.00;99.90
10583;DHT22;33679;51.218;6.786;2022-09-09T12:50:45;25.00;99.90
10583;DHT22;33679;51.218;6.786;2022-09-09T12:53:20;24.90;99.90
10583;DHT22;33679;51.218;6.786;2022-09-09T12:56:00;24.90;99.90
10583;DHT22;33679;51.218;6.786;2022-09-09T12:58:31;24.90;99.90
10583;DHT22;33679;51.218;6.786;2022-09-09T13:01:02;24.90;99.90
10583;DHT22;33679;51.218;6.786;2022-09-09T13:03:42;24.80;99.90
10583;DHT22;33679;51.218;6.786;2022-09-09T13:06:13;24.80;99.90
10583;DHT22;33679;51.218;6.786;2022-09-09T13:08:47;24.70;99.90
10583;DHT22;33679;51.218;6.786;2022-09-09T13:11:27;24.80;99.90
10583;DHT22;33679;51.218;6.786;2022-09-09T13:13:58;24.70;99.90
10583;DHT22;33679;51.218;6.786;2022-09-09T13:16:31;24.90;99.90
10583;DHT22;33679;51.218;6.786;2022-09-09T13:19:01;24.90;99.90
10583;DHT22;33679;51.218;6.786;2022-09-09T13:21:36;25.00;99.90
10583;DHT22;33679;51.218;6.786;2022-09-09T13:24:05;25.00;99.90
10583;DHT22;33679;51.218;6.786;2022-09-09T13:26:41;25.00;99.90
10583;DHT22;33679;51.218;6.786;2022-09-09T13:29:19;24.90;99.90
10583;DHT22;33679;51.218;6.786;2022-09-09T13:32:04;24.90;99.90
10583;DHT22;33679;51.218;6.786;2022-09-09T13:34:35;24.90;99.90
10583;DHT22;33679;51.218;6.786;2022-09-09T13:37:04;24.80;99.90
10583;DHT22;33679;51.218;6.786;2022-09-09T13:39:59;24.80;99.90
10583;DHT22;33679;51.218;6.786;2022-09-09T13:42:40;24.90;99.90
10583;DHT22;33679;51.218;6.786;2022-09-09T13:45:19;24.90;99.90
10583;DHT22;33679;51.218;6.786;2022-09-09T13:48:09;24.90;99.90
10583;DHT22;33679;51.218;6.786;2022-09-09T13:50:39;24.90;99.90
10583;DHT22;33679;51.218;6.786;2022-09-09T13:53:20;25.00;99.90
10583;DHT22;33679;51.218;6.786;2022-09-09T13:55:48;25.10;99.90
10583;DHT22;33679;51.218;6.786;2022-09-09T13:58:16;25.00;99.90
10583;DHT22;33679;51.218;6.786;2022-09-09T14:00:57;25.00;99.90
10583;DHT22;33679;51.218;6.786;2022-09-09T14:03:24;24.90;99.90
10583;DHT22;33679;51.218;6.786;2022-09-09T14:05:51;24.70;99.90
10583;DHT22;33679;51.218;6.786;2022-09-09T14:08:37;24.70;99.90
10583;DHT22;33679;51.218;6.786;2022-09-09T14:11:12;24.60;99.90
10583;DHT22;33679;51.218;6.786;2022-09-09T14:13:39;24.50;99.90
10583;DHT22;33679;51.218;6.786;2022-09-09T14:16:16;24.60;99.90
10583;DHT22;33679;51.218;6.786;2022-09-09T14:18:44;24.70;99.90
10583;DHT22;33679;51.218;6.786;2022-09-09T14:21:15;24.70;99.90
10583;DHT22;33679;51.218;6.786;2022-09-09T14:23:42;24.90;99.90
10583;DHT22;33679;51.218;6.786;2022-09-09T14:26:21;24.90;99.90
10583;DHT22;33679;51.218;6.786;2022-09-09T14:28:49;25.00;99.90
10583;DHT22;33679;51.218;6.786;2022-09-09T14:31:19;25.10;99.90
10583;DHT22;33679;51.218;6.786;2022-09-09T14:33:48;25.00;99.90
10583;DHT22;33679;51.218;6.786;2022-09-09T14:36:30;24.80;99.90
10583;DHT22;33679;51.218;6.786;2022-09-09T14:38:58;24.70;99.90
10583;DHT22;33679;51.218;6.786;2022-09-09T14:41:25;24.60;99.90
10583;DHT22;33679;51.218;6.786;2022-09-09T14:43:53;24.40;99.90
10583;DHT22;33679;51.218;6.786;2022-09-09T14:46:32;24.30;99.90
10583;DHT22;33679;51.218;6.786;2022-09-09T14:49:00;24.10;99.90
10583;DHT22;33679;51.218;6.786;2022-09-09T14:51:30;24.10;99.90
10583;DHT22;33679;51.218;6.786;2022-09-09T14:54:00;23.90;99.90
10583;DHT22;33679;51.218;6.786;2022-09-09T14:56:29;23.70;99.90
10583;DHT22;33679;51.218;6.786;2022-09-09T14:58:58;23.40;99.90
10583;DHT22;33679;51.218;6.786;2022-09-09T15:01:40;23.20;99.90
10583;DHT22;33679;51.218;6.786;2022-09-09T15:04:10;22.90;99.90
10583;DHT22;33679;51.218;6.786;2022-09-09T15:06:40;22.70;99.90
10583;DHT22;33679;51.218;6.786;2022-09-09T15:09:21;22.60;99.90
10583;DHT22;33679;51.218;6.786;2022-09-09T15:11:50;22.50;99.90
10583;DHT22;33679;51.218;6.786;2022-09-09T15:14:17;22.40;99.90
10583;DHT22;33679;51.218;6.786;2022-09-09T15:16:57;22.50;99.90
10583;DHT22;33679;51.218;6.786;2022-09-09T15:19:24;22.50;99.90
10583;DHT22;33679;51.218;6.786;2022-09-09T15:21:51;22.50;99.90
10583;DHT22;33679;51.218;6.786;2022-09-09T15:24:20;22.50;99.90
10583;DHT22;33679;51.218;6.786;2022-09-09T15:26:54;22.60;99.90
10583;DHT22;33679;51.218;6.786;2022-09-09T15:29:22;22.70;99.90
10583;DHT22;33679;51.218;6.786;2022-09-09T15:31:49;22.70;99.90
10583;DHT22;33679;51.218;6.786;2022-09-09T15:34:18;22.80;99.90
10583;DHT22;33679;51.218;6.786;2022-09-09T15:36:48;22.90;99.90
10583;DHT22;33679;51.218;6.786;2022-09-09T15:39:24;22.90;99.90
10583;DHT22;33679;51.218;6.786;2022-09-09T15:41:53;23.00;99.90
10583;DHT22;33679;51.218;6.786;2022-09-09T15:44:20;23.10;99.90
10583;DHT22;33679;51.218;6.786;2022-09-09T15:46:58;23.10;99.90
10583;DHT22;33679;51.218;6.786;2022-09-09T15:49:27;23.10;99.90
10583;DHT22;33679;51.218;6.786;2022-09-09T15:51:55;23.20;99.90
10583;DHT22;33679;51.218;6.786;2022-09-09T15:54:24;23.20;99.90
10583;DHT22;33679;51.218;6.786;2022-09-09T15:56:54;23.20;99.90
10583;DHT22;33679;51.218;6.786;2022-09-09T15:59:29;23.30;99.90
10583;DHT22;33679;51.218;6.786;2022-09-09T16:01:58;23.30;99.90
10583;DHT22;33679;51.218;6.786;2022-09-09T16:04:27;23.20;99.90
10583;DHT22;33679;51.218;6.786;2022-09-09T16:07:03;23.20;99.90
10583;DHT22;33679;51.218;6.786;2022-09-09T16:09:31;23.20;99.90
10583;DHT22;33679;51.218;6.786;2022-09-09T16:12:02;23.10;99.90
10583;DHT22;33679;51.218;6.786;2022-09-09T16:14:40;23.10;99.90
10583;DHT22;33679;51.218;6.786;2022-09-09T16:17:08;23.00;99.90
10583;DHT22;33679;51.218;6.786;2022-09-09T16:19:41;23.00;99.90
10583;DHT22;33679;51.218;6.786;2022-09-09T16:22:08;23.10;99.90
10583;DHT22;33679;51.218;6.786;2022-09-09T16:24:42;23.00;99.90
10583;DHT22;33679;51.218;6.786;2022-09-09T16:27:13;23.00;99.90
10583;DHT22;33679;51.218;6.786;2022-09-09T16:29:41;22.90;99.90